createdAt,value
2018-10-18T00:00:30.760Z,99.90
2018-10-18T00:02:59.344Z,99.90
2018-10-18T00:05:27.618Z,99.90
2018-10-18T00:09:25.373Z,99.90
2018-10-18T00:11:53.838Z,99.90
2018-10-18T00:14:22.076Z,99.90
2018-10-18T00:16:50.328Z,99.90
2018-10-18T00:19:18.571Z,99.90
2018-10-18T00:21:46.820Z,99.90
2018-10-18T00:24:15.149Z,99.90
2018-10-18T00:26:43.407Z,99.90
2018-10-18T00:29:11.642Z,99.90
2018-10-18T00:31:39.877Z,99.90
2018-10-18T00:34:08.135Z,99.90
2018-10-18T00:36:36.529Z,99.90
2018-10-18T00:39:08.414Z,99.90
2018-10-18T00:41:36.766Z,99.90
2018-10-18T00:44:05.906Z,99.90
2018-10-18T00:46:34.131Z,99.90
2018-10-18T00:49:02.393Z,99.90
2018-10-18T00:51:30.639Z,99.90
2018-10-18T00:53:58.896Z,99.90
2018-10-18T00:56:27.118Z,99.90
2018-10-18T00:58:55.645Z,99.90
2018-10-18T01:01:23.963Z,99.90
2018-10-18T01:03:52.194Z,99.90
2018-10-18T01:06:20.448Z,99.90
2018-10-18T01:08:48.875Z,99.90
2018-10-18T01:11:17.147Z,99.90
2018-10-18T01:13:45.385Z,99.90
2018-10-18T01:16:13.635Z,99.90
2018-10-18T01:18:42.007Z,99.90
2018-10-18T01:21:10.434Z,99.90
2018-10-18T01:23:38.669Z,99.90
2018-10-18T01:26:07.004Z,99.90
2018-10-18T01:28:35.150Z,99.90
2018-10-18T01:31:03.374Z,99.90
2018-10-18T01:33:31.593Z,99.90
2018-10-18T01:36:00.001Z,99.90
2018-10-18T01:38:28.168Z,99.90
2018-10-18T01:40:56.406Z,99.90
2018-10-18T01:43:24.909Z,99.90
2018-10-18T01:45:53.354Z,99.90
2018-10-18T01:48:21.637Z,99.90
2018-10-18T01:50:49.897Z,99.90
2018-10-18T01:53:18.113Z,99.90
2018-10-18T01:55:46.367Z,99.90
2018-10-18T01:58:14.840Z,99.90
2018-10-18T02:00:43.076Z,99.90
2018-10-18T02:03:11.340Z,99.90
2018-10-18T02:05:39.553Z,99.90
2018-10-18T02:08:07.853Z,99.90
2018-10-18T02:10:36.044Z,99.90
2018-10-18T02:13:04.304Z,99.90
2018-10-18T02:15:32.523Z,99.90
2018-10-18T02:18:00.894Z,99.90
2018-10-18T02:20:29.054Z,99.90
2018-10-18T02:22:57.305Z,99.90
2018-10-18T02:25:25.534Z,99.90
2018-10-18T02:27:53.918Z,99.90
2018-10-18T02:30:22.340Z,99.90
2018-10-18T02:32:50.612Z,99.90
2018-10-18T02:35:18.849Z,99.90
2018-10-18T02:37:47.097Z,99.90
2018-10-18T02:40:15.333Z,99.90
2018-10-18T02:42:43.682Z,99.90
2018-10-18T02:45:11.971Z,99.90
2018-10-18T02:47:40.253Z,99.90
2018-10-18T02:50:08.543Z,99.90
2018-10-18T02:52:36.785Z,99.90
2018-10-18T02:55:05.467Z,99.90
2018-10-18T02:57:33.742Z,99.90
2018-10-18T03:00:02.035Z,99.90
2018-10-18T03:02:30.195Z,99.90
2018-10-18T03:04:58.425Z,99.90
2018-10-18T03:07:26.676Z,99.90
2018-10-18T03:09:54.951Z,99.90
2018-10-18T03:12:23.517Z,99.90
2018-10-18T03:14:51.778Z,99.90
2018-10-18T03:17:20.058Z,99.90
2018-10-18T03:19:48.273Z,99.90
2018-10-18T03:22:16.520Z,99.90
2018-10-18T03:24:44.763Z,99.90
2018-10-18T03:27:13.001Z,99.90
2018-10-18T03:29:41.237Z,99.90
2018-10-18T03:32:09.549Z,99.90
2018-10-18T03:34:38.013Z,99.90
2018-10-18T03:37:06.274Z,99.90
2018-10-18T03:39:34.557Z,99.90
2018-10-18T03:42:02.827Z,99.90
2018-10-18T03:44:30.982Z,99.90
2018-10-18T03:46:59.217Z,99.90
2018-10-18T03:49:27.446Z,99.90
2018-10-18T03:51:55.671Z,99.90
2018-10-18T03:54:23.918Z,99.90
2018-10-18T03:56:52.173Z,99.90
2018-10-18T03:59:20.450Z,99.90
2018-10-18T04:01:48.706Z,99.90
2018-10-18T04:04:16.959Z,99.90
2018-10-18T04:06:45.241Z,99.90
2018-10-18T04:09:13.477Z,99.90
2018-10-18T04:11:41.785Z,99.90
2018-10-18T04:14:10.006Z,99.90
2018-10-18T04:16:38.259Z,99.90
2018-10-18T04:19:06.641Z,99.90
2018-10-18T04:21:34.850Z,99.90
2018-10-18T04:24:03.102Z,99.90
2018-10-18T04:26:31.297Z,99.90
2018-10-18T04:28:59.553Z,99.90
2018-10-18T04:31:27.769Z,99.90
2018-10-18T04:33:56.260Z,99.90
2018-10-18T04:36:24.491Z,99.90
2018-10-18T04:38:52.761Z,99.90
2018-10-18T04:41:21.025Z,99.90
2018-10-18T04:43:49.275Z,99.90
2018-10-18T04:46:17.517Z,99.90
2018-10-18T04:48:45.840Z,99.90
2018-10-18T04:51:14.037Z,99.90
2018-10-18T04:53:42.313Z,99.90
2018-10-18T04:56:10.551Z,99.90
2018-10-18T04:58:38.854Z,99.90
2018-10-18T05:01:07.113Z,99.90
2018-10-18T05:03:35.318Z,99.90
2018-10-18T05:06:04.749Z,99.90
2018-10-18T05:08:32.998Z,99.90
2018-10-18T05:11:01.261Z,99.90
2018-10-18T05:13:29.558Z,99.90
2018-10-18T05:15:57.802Z,99.90
2018-10-18T05:18:26.110Z,99.90
2018-10-18T05:20:54.379Z,99.90
2018-10-18T05:23:22.659Z,99.90
2018-10-18T05:25:51.532Z,99.90
2018-10-18T05:28:20.063Z,99.90
2018-10-18T05:30:48.332Z,99.90
2018-10-18T05:33:16.738Z,99.90
2018-10-18T05:35:44.957Z,99.90
2018-10-18T05:38:13.205Z,99.90
2018-10-18T05:40:41.423Z,99.90
2018-10-18T05:43:09.733Z,99.90
2018-10-18T05:45:38.048Z,99.90
2018-10-18T05:48:06.320Z,99.90
2018-10-18T05:50:34.790Z,99.90
2018-10-18T05:53:03.129Z,99.90
2018-10-18T05:55:31.294Z,99.90
2018-10-18T05:58:00.129Z,99.90
2018-10-18T06:00:28.605Z,99.90
2018-10-18T06:02:56.842Z,99.90
2018-10-18T06:05:25.086Z,99.90
2018-10-18T06:07:53.477Z,99.90
2018-10-18T06:10:33.084Z,99.90
2018-10-18T06:13:01.276Z,99.90
2018-10-18T06:15:29.501Z,99.90
2018-10-18T06:17:57.725Z,99.90
2018-10-18T06:20:25.990Z,99.90
2018-10-18T06:22:54.322Z,99.90
2018-10-18T06:25:22.541Z,99.90
2018-10-18T06:27:50.837Z,99.90
2018-10-18T06:30:19.080Z,99.90
2018-10-18T06:32:47.325Z,99.90
2018-10-18T06:35:16.521Z,99.90
2018-10-18T06:37:44.853Z,99.90
2018-10-18T06:40:16.486Z,99.90
2018-10-18T06:42:44.901Z,99.90
2018-10-18T06:45:14.478Z,99.90
2018-10-18T06:47:43.493Z,99.90
2018-10-18T06:50:13.592Z,99.90
2018-10-18T06:52:42.069Z,99.90
2018-10-18T06:55:10.388Z,99.90
2018-10-18T06:57:39.763Z,99.90
2018-10-18T07:00:20.547Z,99.90
2018-10-18T07:02:49.209Z,99.90
2018-10-18T07:05:17.673Z,99.90
2018-10-18T07:07:46.032Z,99.90
2018-10-18T07:10:14.348Z,99.90
2018-10-18T07:12:42.943Z,99.90
2018-10-18T07:15:12.135Z,99.90
2018-10-18T07:17:41.093Z,99.90
2018-10-18T07:20:09.819Z,99.90
2018-10-18T07:22:38.731Z,99.90
2018-10-18T07:25:09.072Z,99.90
2018-10-18T07:27:37.505Z,99.90
2018-10-18T07:30:07.396Z,99.90
2018-10-18T07:32:35.546Z,99.90
2018-10-18T07:35:04.093Z,99.90
2018-10-18T07:37:32.337Z,99.90
2018-10-18T07:40:00.645Z,99.90
2018-10-18T07:42:28.938Z,99.90
2018-10-18T07:44:57.605Z,99.90
2018-10-18T07:47:25.890Z,99.90
2018-10-18T07:49:54.165Z,99.90
2018-10-18T07:52:22.593Z,99.90
2018-10-18T07:54:50.877Z,99.90
2018-10-18T07:57:19.289Z,99.90
2018-10-18T07:59:47.716Z,99.90
2018-10-18T08:02:15.941Z,99.90
2018-10-18T08:04:44.183Z,99.90
2018-10-18T08:07:15.132Z,99.90
2018-10-18T08:09:43.632Z,99.90
2018-10-18T08:12:11.842Z,99.90
2018-10-18T08:14:40.317Z,99.70
2018-10-18T08:17:08.577Z,99.20
2018-10-18T08:19:36.947Z,98.90
2018-10-18T08:22:05.528Z,98.20
2018-10-18T08:24:33.851Z,98.30
2018-10-18T08:27:02.141Z,97.40
2018-10-18T08:29:30.507Z,97.00
2018-10-18T08:31:58.856Z,96.60
2018-10-18T08:34:27.186Z,96.30
2018-10-18T08:36:56.027Z,96.00
2018-10-18T08:39:24.363Z,95.80
2018-10-18T08:41:52.929Z,95.60
2018-10-18T08:44:22.129Z,95.40
2018-10-18T08:46:50.527Z,95.20
2018-10-18T08:49:18.962Z,95.10
2018-10-18T08:51:48.904Z,95.00
2018-10-18T08:54:17.273Z,94.70
2018-10-18T08:56:45.558Z,93.90
2018-10-18T08:59:14.184Z,93.30
2018-10-18T09:01:42.469Z,93.20
2018-10-18T09:04:10.765Z,92.80
2018-10-18T09:06:39.117Z,92.70
2018-10-18T09:09:08.300Z,92.80
2018-10-18T09:11:36.610Z,92.70
2018-10-18T09:14:05.543Z,92.20
2018-10-18T09:16:33.962Z,91.50
2018-10-18T09:19:02.331Z,91.20
2018-10-18T09:21:30.764Z,90.70
2018-10-18T09:23:59.669Z,90.20
2018-10-18T09:26:27.894Z,89.10
2018-10-18T09:28:56.233Z,88.40
2018-10-18T09:31:24.722Z,88.00
2018-10-18T09:33:53.002Z,88.40
2018-10-18T09:36:21.507Z,87.90
2018-10-18T09:38:49.751Z,86.70
2018-10-18T09:41:18.111Z,85.50
2018-10-18T09:43:46.531Z,84.50
2018-10-18T09:46:14.862Z,83.20
2018-10-18T09:48:43.193Z,82.90
2018-10-18T09:51:11.526Z,82.90
2018-10-18T09:53:39.902Z,82.40
2018-10-18T09:56:08.685Z,81.10
2018-10-18T09:58:36.978Z,80.20
2018-10-18T10:01:10.768Z,79.10
2018-10-18T10:03:39.012Z,77.40
2018-10-18T10:06:07.448Z,76.10
2018-10-18T10:08:35.733Z,74.70
2018-10-18T10:11:04.066Z,73.60
2018-10-18T10:13:32.424Z,72.00
2018-10-18T10:16:00.714Z,69.70
2018-10-18T10:18:28.993Z,67.10
2018-10-18T10:20:57.265Z,64.50
2018-10-18T10:23:25.797Z,62.60
2018-10-18T10:25:54.262Z,59.80
2018-10-18T10:28:23.068Z,55.60
2018-10-18T10:30:51.484Z,51.20
2018-10-18T10:33:20.501Z,46.90
2018-10-18T10:35:48.822Z,43.20
2018-10-18T10:38:18.021Z,39.20
2018-10-18T10:40:46.473Z,35.00
2018-10-18T10:43:14.860Z,32.10
2018-10-18T10:45:43.324Z,30.70
2018-10-18T10:48:11.956Z,29.60
2018-10-18T10:50:40.165Z,29.20
2018-10-18T10:53:08.596Z,28.30
2018-10-18T10:55:37.189Z,28.00
2018-10-18T10:58:05.873Z,27.60
2018-10-18T11:01:16.581Z,27.60
2018-10-18T11:03:45.400Z,27.10
2018-10-18T11:06:13.974Z,26.90
2018-10-18T11:08:42.384Z,26.20
2018-10-18T11:11:12.283Z,25.90
2018-10-18T11:13:41.574Z,26.20
2018-10-18T11:16:10.071Z,25.50
2018-10-18T11:18:39.026Z,25.60
2018-10-18T11:21:08.450Z,25.20
2018-10-18T11:23:37.961Z,25.10
2018-10-18T11:26:08.870Z,25.40
2018-10-18T11:28:38.660Z,24.80
2018-10-18T11:31:07.608Z,24.90
2018-10-18T11:33:35.994Z,24.40
2018-10-18T11:42:49.999Z,23.50
2018-10-18T11:45:18.313Z,24.40
2018-10-18T11:47:46.787Z,23.80
2018-10-18T11:50:15.398Z,24.30
2018-10-18T11:52:43.771Z,25.10
2018-10-18T11:55:12.110Z,25.90
2018-10-18T11:57:40.369Z,26.80
2018-10-18T12:00:12.329Z,27.70
2018-10-18T12:02:40.619Z,26.90
2018-10-18T12:05:08.910Z,26.80
2018-10-18T12:07:37.143Z,26.00
2018-10-18T12:10:07.311Z,25.00
2018-10-18T12:12:35.954Z,25.00
2018-10-18T12:15:04.581Z,25.20
2018-10-18T12:17:32.891Z,25.10
2018-10-18T12:20:01.275Z,24.70
2018-10-18T12:22:29.507Z,24.50
2018-10-18T12:24:57.821Z,24.30
2018-10-18T12:27:26.372Z,24.60
2018-10-18T12:29:54.654Z,24.50
2018-10-18T12:32:22.902Z,24.00
2018-10-18T12:34:51.330Z,23.70
2018-10-18T12:37:19.730Z,23.70
2018-10-18T12:39:48.093Z,23.30
2018-10-18T12:42:16.484Z,23.40
2018-10-18T12:44:44.767Z,23.30
2018-10-18T12:47:13.126Z,23.30
2018-10-18T12:49:42.290Z,22.80
2018-10-18T12:52:12.835Z,22.40
2018-10-18T12:54:41.373Z,22.40
2018-10-18T12:57:11.315Z,22.00
2018-10-18T12:59:39.589Z,21.70
2018-10-18T13:02:22.034Z,21.40
2018-10-18T13:05:08.198Z,21.60
2018-10-18T13:07:36.758Z,21.70
2018-10-18T13:10:07.081Z,21.70
2018-10-18T13:12:35.505Z,21.80
2018-10-18T13:15:03.795Z,22.00
2018-10-18T13:17:32.234Z,21.90
2018-10-18T13:20:00.819Z,21.90
2018-10-18T13:22:29.257Z,22.40
2018-10-18T13:24:57.722Z,22.80
2018-10-18T13:27:26.055Z,23.10
2018-10-18T13:29:54.414Z,23.10
2018-10-18T13:32:22.930Z,22.90
2018-10-18T13:37:44.671Z,23.00
2018-10-18T13:40:12.951Z,22.90
2018-10-18T13:42:41.181Z,22.60
2018-10-18T13:45:09.497Z,22.20
2018-10-18T13:47:37.777Z,22.50
2018-10-18T13:50:06.583Z,23.20
2018-10-18T13:52:35.131Z,23.50
2018-10-18T13:55:03.425Z,23.60
2018-10-18T13:57:33.657Z,23.80
2018-10-18T14:00:20.717Z,24.40
2018-10-18T14:02:49.351Z,24.80
2018-10-18T14:05:18.397Z,25.30
2018-10-18T14:09:15.863Z,25.90
2018-10-18T14:11:44.130Z,26.90
2018-10-18T14:14:12.535Z,29.00
2018-10-18T14:16:40.898Z,30.70
2018-10-18T14:19:09.421Z,33.00
2018-10-18T14:21:37.698Z,34.90
2018-10-18T14:24:06.522Z,36.60
2018-10-18T14:26:36.529Z,38.10
2018-10-18T14:29:04.904Z,39.00
2018-10-18T14:31:35.065Z,39.90
2018-10-18T14:34:03.402Z,40.50
2018-10-18T14:36:31.863Z,41.50
2018-10-18T14:39:01.558Z,41.50
2018-10-18T14:41:30.027Z,42.30
2018-10-18T14:43:58.529Z,42.20
2018-10-18T14:46:27.279Z,42.50
2018-10-18T14:48:55.756Z,43.20
2018-10-18T14:51:24.206Z,43.70
2018-10-18T14:54:03.041Z,43.80
2018-10-18T14:56:31.321Z,44.30
2018-10-18T14:59:00.699Z,44.80
2018-10-18T15:01:29.078Z,45.30
2018-10-18T15:03:57.318Z,45.90
2018-10-18T15:06:25.589Z,46.70
2018-10-18T15:08:55.155Z,47.00
2018-10-18T15:11:23.359Z,47.40
2018-10-18T15:13:51.642Z,47.50
2018-10-18T15:16:19.878Z,47.80
2018-10-18T15:18:48.135Z,48.10
2018-10-18T15:21:16.409Z,48.30
2018-10-18T15:23:44.985Z,48.80
2018-10-18T15:26:13.261Z,49.20
2018-10-18T15:28:41.481Z,49.90
2018-10-18T15:31:09.922Z,50.50
2018-10-18T15:33:38.169Z,51.20
2018-10-18T15:36:06.437Z,51.70
2018-10-18T15:38:34.823Z,52.20
2018-10-18T15:41:02.962Z,52.40
2018-10-18T15:43:31.298Z,52.70
2018-10-18T15:46:00.089Z,53.00
2018-10-18T15:48:28.377Z,53.10
2018-10-18T15:50:56.643Z,53.30
2018-10-18T15:53:24.998Z,53.70
2018-10-18T15:55:53.305Z,54.00
2018-10-18T15:58:21.880Z,54.60
2018-10-18T16:00:50.149Z,54.90
2018-10-18T16:03:18.503Z,55.30
2018-10-18T16:05:46.706Z,55.70
2018-10-18T16:08:15.089Z,56.50
2018-10-18T16:10:43.476Z,57.20
2018-10-18T16:13:11.740Z,57.80
2018-10-18T16:15:40.109Z,58.50
2018-10-18T16:18:08.386Z,59.00
2018-10-18T16:20:36.671Z,59.80
2018-10-18T16:23:05.050Z,60.70
2018-10-18T16:25:33.301Z,61.60
2018-10-18T16:28:01.595Z,62.20
2018-10-18T16:30:29.848Z,62.90
2018-10-18T16:32:58.265Z,63.80
2018-10-18T16:35:26.697Z,64.50
2018-10-18T16:37:55.332Z,65.00
2018-10-18T16:40:23.613Z,65.80
2018-10-18T16:42:51.922Z,66.70
2018-10-18T16:45:20.357Z,67.40
2018-10-18T16:47:48.632Z,68.60
2018-10-18T16:50:17.398Z,68.40
2018-10-18T16:52:45.686Z,68.80
2018-10-18T16:55:13.961Z,69.40
2018-10-18T16:57:42.265Z,70.30
2018-10-18T17:00:11.205Z,70.60
2018-10-18T17:02:39.521Z,70.90
2018-10-18T17:05:07.910Z,71.30
2018-10-18T17:07:36.487Z,72.00
2018-10-18T17:10:05.442Z,72.50
2018-10-18T17:12:33.759Z,73.10
2018-10-18T17:15:02.010Z,74.90
2018-10-18T17:17:30.277Z,74.90
2018-10-18T17:19:58.579Z,75.70
2018-10-18T17:22:26.794Z,76.10
2018-10-18T17:24:55.105Z,76.90
2018-10-18T17:27:23.530Z,76.90
2018-10-18T17:29:51.690Z,77.80
2018-10-18T17:32:20.261Z,78.20
2018-10-18T17:34:48.544Z,78.60
2018-10-18T17:37:16.794Z,79.10
2018-10-18T17:39:45.305Z,79.60
2018-10-18T17:42:13.748Z,80.10
2018-10-18T17:44:41.933Z,80.30
2018-10-18T17:47:10.377Z,80.70
2018-10-18T17:49:38.653Z,80.80
2018-10-18T17:52:06.950Z,80.60
2018-10-18T17:54:35.255Z,80.70
2018-10-18T17:57:03.583Z,81.10
2018-10-18T17:59:31.877Z,81.10
2018-10-18T18:02:00.165Z,81.60
2018-10-18T18:04:28.406Z,82.00
2018-10-18T18:06:56.983Z,82.50
2018-10-18T18:09:25.313Z,82.60
2018-10-18T18:11:53.495Z,83.40
2018-10-18T18:14:21.808Z,83.60
2018-10-18T18:16:50.093Z,83.70
2018-10-18T18:19:18.326Z,83.80
2018-10-18T18:21:46.722Z,84.40
2018-10-18T18:24:15.019Z,84.90
2018-10-18T18:26:45.501Z,85.00
2018-10-18T18:29:11.607Z,85.50
2018-10-18T18:31:39.877Z,85.80
2018-10-18T18:34:08.130Z,87.20
2018-10-18T18:36:36.379Z,90.00
2018-10-18T18:39:07.443Z,90.00
2018-10-18T18:41:35.625Z,90.30
2018-10-18T18:44:03.905Z,91.40
2018-10-18T18:46:32.177Z,91.70
2018-10-18T18:49:00.633Z,92.00
2018-10-18T18:51:28.954Z,92.30
2018-10-18T18:53:57.196Z,92.70
2018-10-18T18:56:25.470Z,93.40
2018-10-18T18:58:53.848Z,94.10
2018-10-18T19:01:22.077Z,94.70
2018-10-18T19:03:50.612Z,95.40
2018-10-18T19:06:19.154Z,96.10
2018-10-18T19:08:47.584Z,96.70
2018-10-18T19:11:15.825Z,97.20
2018-10-18T19:13:44.064Z,97.60
2018-10-18T19:16:12.338Z,97.90
2018-10-18T19:18:40.628Z,98.20
2018-10-18T19:21:08.923Z,98.40
2018-10-18T19:23:37.117Z,98.60
2018-10-18T19:26:05.631Z,98.60
2018-10-18T19:28:34.475Z,98.90
2018-10-18T19:31:02.997Z,99.20
2018-10-18T19:33:31.287Z,99.50
2018-10-18T19:35:59.529Z,99.90
2018-10-18T19:38:27.880Z,99.90
2018-10-18T19:40:56.092Z,99.90
2018-10-18T19:43:24.340Z,99.90
2018-10-18T19:45:52.671Z,99.90
2018-10-18T19:48:20.857Z,99.90
2018-10-18T19:50:49.705Z,99.90
2018-10-18T19:53:17.985Z,99.90
2018-10-18T19:55:46.255Z,99.90
2018-10-18T19:58:14.602Z,99.90
2018-10-18T20:00:42.822Z,99.90
2018-10-18T20:03:11.249Z,99.90
2018-10-18T20:05:39.482Z,99.90
2018-10-18T20:08:07.814Z,99.90
2018-10-18T20:10:36.037Z,99.90
2018-10-18T20:13:04.457Z,99.90
2018-10-18T20:15:32.566Z,99.90
2018-10-18T20:18:00.857Z,99.90
2018-10-18T20:20:29.117Z,99.90
2018-10-18T20:22:57.338Z,99.90
2018-10-18T20:25:25.921Z,99.90
2018-10-18T20:27:54.089Z,99.90
2018-10-18T20:30:22.331Z,99.90
2018-10-18T20:32:50.553Z,99.90
2018-10-18T20:35:18.861Z,99.90
2018-10-18T20:37:47.087Z,99.90
2018-10-18T20:40:15.816Z,99.90
2018-10-18T20:42:44.041Z,99.90
2018-10-18T20:45:17.613Z,99.90
2018-10-18T20:47:46.157Z,99.90
2018-10-18T20:50:14.621Z,99.90
2018-10-18T20:52:43.091Z,99.90
2018-10-18T20:55:11.350Z,99.90
2018-10-18T20:57:39.796Z,99.90
2018-10-18T21:00:08.575Z,99.90
2018-10-18T21:02:36.813Z,99.90
2018-10-18T21:05:05.310Z,99.90
2018-10-18T21:07:33.552Z,99.90
2018-10-18T21:10:01.800Z,99.90
2018-10-18T21:12:30.025Z,99.90
2018-10-18T21:14:58.299Z,99.90
2018-10-18T21:17:26.496Z,99.90
2018-10-18T21:19:54.836Z,99.90
2018-10-18T21:22:23.085Z,99.90
2018-10-18T21:24:51.299Z,99.90
2018-10-18T21:27:19.561Z,99.90
2018-10-18T21:29:48.022Z,99.90
2018-10-18T21:32:16.247Z,99.90
2018-10-18T21:34:44.521Z,99.90
2018-10-18T21:37:12.729Z,99.90
2018-10-18T21:39:40.954Z,99.90
2018-10-18T21:42:09.342Z,99.90
2018-10-18T21:44:38.090Z,99.90
2018-10-18T21:47:06.376Z,99.90
2018-10-18T21:49:34.575Z,99.90
2018-10-18T21:52:02.840Z,99.90
2018-10-18T21:54:31.121Z,99.90
2018-10-18T21:56:59.350Z,99.90
2018-10-18T21:59:27.744Z,99.90
2018-10-18T22:01:56.045Z,99.90
2018-10-18T22:04:24.484Z,99.90
2018-10-18T22:06:52.760Z,99.90
2018-10-18T22:09:21.031Z,99.90
2018-10-18T22:11:49.306Z,99.90
2018-10-18T22:14:17.721Z,99.90
2018-10-18T22:16:46.170Z,99.90
2018-10-18T22:19:14.447Z,99.90
2018-10-18T22:21:42.750Z,99.90
2018-10-18T22:24:11.647Z,99.90
2018-10-18T22:26:40.182Z,99.90
2018-10-18T22:29:08.471Z,99.90
2018-10-18T22:31:36.841Z,99.90
2018-10-18T22:34:05.404Z,99.90
2018-10-18T22:36:33.642Z,99.90
2018-10-18T22:39:01.948Z,99.90
2018-10-18T22:41:30.149Z,99.90
2018-10-18T22:43:58.397Z,99.90
2018-10-18T22:46:26.642Z,99.90
2018-10-18T22:48:54.969Z,99.90
2018-10-18T22:51:23.253Z,99.90
2018-10-18T22:53:51.506Z,99.90
2018-10-18T22:56:19.723Z,99.90
2018-10-18T22:58:47.999Z,99.90
2018-10-18T23:01:16.250Z,99.90
2018-10-18T23:03:44.518Z,99.90
2018-10-18T23:06:12.750Z,99.90
2018-10-18T23:08:41.220Z,99.90
2018-10-18T23:11:09.788Z,99.90
2018-10-18T23:13:37.996Z,99.90
2018-10-18T23:16:06.309Z,99.90
2018-10-18T23:18:34.535Z,99.90
2018-10-18T23:21:02.893Z,99.90
2018-10-18T23:23:31.086Z,99.90
2018-10-18T23:25:59.313Z,99.90
2018-10-18T23:28:27.583Z,99.90
2018-10-18T23:30:55.822Z,99.90
2018-10-18T23:33:24.270Z,99.90
2018-10-18T23:35:52.513Z,99.90
2018-10-18T23:38:20.754Z,99.90
2018-10-18T23:40:49.046Z,99.90
2018-10-18T23:43:17.292Z,99.90
2018-10-18T23:45:45.536Z,99.90
2018-10-18T23:48:13.763Z,99.90
2018-10-18T23:50:41.986Z,99.90
2018-10-18T23:53:10.359Z,99.90
2018-10-18T23:55:38.724Z,99.90
2018-10-18T23:58:06.941Z,99.90
